Terminal Aerodrome Forecast
Issued by NWS Mt. Holly, NJ

Current Version | Previous Version | Text Only | Print | Product List | Glossary On
Versions: 1 2 3 4 5 6 7 8 9 10 11 12 13 14 15 16 17 18 19 20 21 22 23
000
FTUS41 KPHI 241134
TAFACY
TAF
KACY 241134Z 2412/2512 07007KT P6SM VCSH BKN100
     FM241900 07013KT P6SM VCSH OVC070
     FM242100 07013KT 5SM -SHRA BR OVC050
     FM242300 07015G20KT 4SM -RA BR OVC030
     FM250200 07017G26KT 3SM -RA BR OVC007
     FM250700 07016G24KT 3SM BR OVC004=

USA.gov is the U.S. government's official web portal to all federal, state and local government web resources and services.